createdAt,value
2018-12-01T00:03:30.259Z,20.20
2018-12-01T00:08:34.869Z,19.57
2018-12-01T00:13:39.311Z,21.27
2018-12-01T00:18:43.942Z,18.13
2018-12-01T00:23:49.257Z,17.43
2018-12-01T00:28:52.990Z,19.80
2018-12-01T00:33:57.563Z,18.90
2018-12-01T00:39:02.111Z,19.53
2018-12-01T00:44:06.694Z,18.73
2018-12-01T00:49:11.220Z,20.33
2018-12-01T00:54:15.814Z,18.63
2018-12-01T00:59:39.377Z,19.67
2018-12-01T01:04:43.917Z,18.40
2018-12-01T01:09:48.479Z,17.53
2018-12-01T01:14:53.050Z,18.30
2018-12-01T01:19:57.656Z,17.73
2018-12-01T01:25:02.248Z,18.93
2018-12-01T01:30:25.854Z,15.63
2018-12-01T01:35:30.459Z,15.83
2018-12-01T01:40:35.016Z,17.33
2018-12-01T01:45:39.578Z,16.40
2018-12-01T01:50:44.159Z,17.40
2018-12-01T01:55:48.739Z,15.67
2018-12-01T02:00:53.267Z,15.63
2018-12-01T02:05:57.877Z,16.63
2018-12-01T02:11:02.413Z,16.17
2018-12-01T02:16:07.271Z,16.50
2018-12-01T02:21:11.846Z,15.48
2018-12-01T02:26:35.133Z,16.53
2018-12-01T02:31:39.714Z,15.03
2018-12-01T02:36:44.273Z,14.13
2018-12-01T02:42:08.121Z,15.03
2018-12-01T02:47:12.703Z,15.80
2018-12-01T02:52:17.333Z,15.50
2018-12-01T02:57:21.875Z,15.87
2018-12-01T03:02:45.416Z,15.83
2018-12-01T03:07:50.038Z,15.37
2018-12-01T03:12:55.065Z,16.97
2018-12-01T03:17:59.652Z,16.00
2018-12-01T03:23:04.202Z,18.20
2018-12-01T03:28:08.775Z,16.40
2018-12-01T03:33:13.348Z,16.10
2018-12-01T03:38:17.924Z,16.83
2018-12-01T03:43:22.469Z,15.00
2018-12-01T03:48:27.053Z,16.87
2018-12-01T03:53:31.531Z,16.60
2018-12-01T03:58:36.106Z,16.67
2018-12-01T04:03:40.623Z,15.10
2018-12-01T04:08:45.182Z,15.73
2018-12-01T04:13:49.835Z,15.93
2018-12-01T04:19:13.078Z,17.17
2018-12-01T04:24:17.664Z,16.40
2018-12-01T04:29:22.267Z,19.37
2018-12-01T04:34:26.823Z,16.07
2018-12-01T04:39:31.362Z,17.50
2018-12-01T04:44:35.967Z,16.50
2018-12-01T04:49:40.534Z,14.63
2018-12-01T04:54:45.082Z,17.30
2018-12-01T04:59:49.716Z,16.30
2018-12-01T05:04:54.253Z,15.73
2018-12-01T05:09:58.893Z,17.60
2018-12-01T05:15:04.403Z,17.60
2018-12-01T05:20:27.025Z,18.37
2018-12-01T05:25:31.561Z,16.50
2018-12-01T05:30:36.125Z,17.63
2018-12-01T05:35:40.748Z,18.67
2018-12-01T05:40:45.290Z,18.30
2018-12-01T05:45:49.892Z,17.12
2018-12-01T05:50:54.412Z,19.87
2018-12-01T05:55:58.982Z,19.10
2018-12-01T06:01:03.551Z,19.83
2018-12-01T06:06:08.172Z,19.70
2018-12-01T06:11:12.733Z,20.10
2018-12-01T06:16:17.270Z,20.33
2018-12-01T06:21:21.852Z,20.20
2018-12-01T06:26:45.487Z,22.27
2018-12-01T06:31:50.044Z,21.60
2018-12-01T06:36:54.774Z,21.50
2018-12-01T06:41:59.367Z,23.30
2018-12-01T06:47:03.983Z,21.63
2018-12-01T06:52:08.502Z,24.95
2018-12-01T06:57:13.199Z,26.93
2018-12-01T07:02:17.747Z,24.20
2018-12-01T07:07:22.327Z,24.60
2018-12-01T07:12:26.869Z,27.80
2018-12-01T07:17:31.435Z,23.13
2018-12-01T07:22:35.968Z,29.07
2018-12-01T07:27:40.548Z,25.93
2018-12-01T07:32:45.737Z,28.17
2018-12-01T07:37:50.298Z,28.10
2018-12-01T07:42:54.857Z,27.07
2018-12-01T07:47:59.397Z,27.27
2018-12-01T07:53:03.984Z,28.40
2018-12-01T07:58:09.497Z,27.40
2018-12-01T08:03:13.961Z,29.50
2018-12-01T08:08:18.530Z,28.00
2018-12-01T08:13:23.119Z,28.53
2018-12-01T08:18:27.561Z,30.47
2018-12-01T08:23:32.112Z,29.17
2018-12-01T08:28:36.909Z,33.30
2018-12-01T08:33:42.357Z,31.43
2018-12-01T08:38:46.946Z,30.93
2018-12-01T08:43:51.495Z,31.90
2018-12-01T08:48:56.035Z,32.20
2018-12-01T08:54:00.556Z,31.93
2018-12-01T08:59:05.128Z,30.63
2018-12-01T09:04:09.735Z,30.77
2018-12-01T09:09:17.374Z,31.00
2018-12-01T09:14:22.360Z,34.33
2018-12-01T09:19:26.906Z,35.37
2018-12-01T09:24:31.443Z,32.60
2018-12-01T09:29:36.010Z,31.40
2018-12-01T09:34:40.921Z,33.30
2018-12-01T09:39:45.534Z,33.93
2018-12-01T09:44:50.152Z,36.93
2018-12-01T09:50:32.642Z,38.70
2018-12-01T09:55:56.415Z,35.17
2018-12-01T10:01:20.058Z,32.77
2018-12-01T10:06:43.629Z,35.40
2018-12-01T10:11:50.453Z,35.40
2018-12-01T10:16:52.676Z,32.13
2018-12-01T10:21:57.399Z,34.63
2018-12-01T10:27:01.957Z,38.47
2018-12-01T10:32:06.579Z,34.97
2018-12-01T10:37:11.072Z,33.98
2018-12-01T10:42:15.584Z,39.03
2018-12-01T10:47:20.209Z,36.00
2018-12-01T10:52:24.669Z,35.03
2018-12-01T10:57:47.918Z,34.87
2018-12-01T11:03:11.138Z,40.07
2018-12-01T11:08:16.555Z,37.53
2018-12-01T11:13:21.132Z,38.50
2018-12-01T11:24:14.363Z,38.37
2018-12-01T11:29:19.288Z,36.57
2018-12-01T11:34:43.373Z,41.77
2018-12-01T11:39:50.138Z,43.67
2018-12-01T11:44:56.946Z,38.40
2018-12-01T11:50:18.737Z,40.65
2018-12-01T11:55:26.423Z,38.73
2018-12-01T12:00:30.935Z,43.30
2018-12-01T12:05:35.601Z,39.67
2018-12-01T12:10:40.136Z,39.50
2018-12-01T12:15:45.026Z,40.97
2018-12-01T12:20:50.116Z,47.47
2018-12-01T12:26:13.701Z,38.67
2018-12-01T12:31:18.485Z,46.57
2018-12-01T12:36:42.239Z,46.87
2018-12-01T12:41:46.909Z,43.03
2018-12-01T12:46:51.502Z,46.57
2018-12-01T12:51:56.052Z,41.90
2018-12-01T12:57:00.615Z,42.00
2018-12-01T13:02:05.282Z,44.00
2018-12-01T13:07:09.845Z,52.30
2018-12-01T13:12:14.452Z,44.80
2018-12-01T13:17:19.104Z,47.20
2018-12-01T13:22:23.691Z,46.63
2018-12-01T13:27:28.296Z,50.90
2018-12-01T13:32:32.839Z,48.83
2018-12-01T13:37:38.019Z,49.63
2018-12-01T13:42:42.849Z,46.93
2018-12-01T13:47:52.326Z,50.60
2018-12-01T13:53:18.255Z,47.57
2018-12-01T13:58:22.840Z,49.67
2018-12-01T14:03:29.547Z,47.00
2018-12-01T14:08:52.815Z,49.90
2018-12-01T14:14:17.127Z,51.23
2018-12-01T14:19:40.728Z,46.40
2018-12-01T14:24:45.330Z,45.90
2018-12-01T14:29:49.932Z,46.23
2018-12-01T14:34:54.668Z,48.07
2018-12-01T14:45:28.789Z,45.37
2018-12-01T14:50:33.339Z,46.20
2018-12-01T14:55:38.314Z,49.18
2018-12-01T15:00:42.814Z,45.80
2018-12-01T15:05:47.349Z,45.60
2018-12-01T15:10:51.928Z,49.10
2018-12-01T15:15:56.550Z,50.50
2018-12-01T15:21:01.081Z,46.17
2018-12-01T15:26:05.629Z,48.93
2018-12-01T15:31:11.314Z,45.40
2018-12-01T15:36:15.855Z,42.63
2018-12-01T15:41:20.512Z,47.20
2018-12-01T15:46:25.336Z,47.63
2018-12-01T15:51:29.941Z,47.33
2018-12-01T15:56:53.658Z,46.23
2018-12-01T16:01:58.376Z,51.90
2018-12-01T16:07:21.601Z,45.77
2018-12-01T16:12:26.140Z,50.37
2018-12-01T16:17:30.774Z,46.60
2018-12-01T16:22:54.377Z,46.37
2018-12-01T16:27:58.942Z,47.53
2018-12-01T16:33:04.894Z,49.63
2018-12-01T16:38:11.098Z,51.30
2018-12-01T16:43:16.352Z,50.83
2018-12-01T16:48:21.105Z,47.03
2018-12-01T16:53:25.639Z,49.07
2018-12-01T16:58:30.158Z,46.50
2018-12-01T17:03:53.842Z,47.90
2018-12-01T17:08:58.631Z,46.47
2018-12-01T17:14:03.196Z,46.25
2018-12-01T17:19:08.120Z,47.87
2018-12-01T17:24:12.799Z,49.53
2018-12-01T17:29:17.368Z,51.70
2018-12-01T17:34:41.673Z,49.53
2018-12-01T17:39:46.220Z,49.83
2018-12-01T17:44:50.798Z,48.53
2018-12-01T17:49:55.384Z,47.13
2018-12-01T17:54:59.959Z,46.23
2018-12-01T18:00:24.002Z,43.03
2018-12-01T18:05:51.117Z,42.37
2018-12-01T18:10:56.391Z,45.07
2018-12-01T18:16:01.185Z,39.77
2018-12-01T18:21:24.543Z,43.73
2018-12-01T18:26:29.077Z,44.97
2018-12-01T18:31:33.691Z,44.77
2018-12-01T18:36:57.281Z,42.50
2018-12-01T18:42:02.144Z,41.83
2018-12-01T18:47:06.877Z,45.63
2018-12-01T18:52:11.424Z,42.33
2018-12-01T18:57:16.004Z,42.67
2018-12-01T19:02:20.619Z,40.30
2018-12-01T19:07:25.103Z,43.63
2018-12-01T19:12:29.685Z,46.23
2018-12-01T19:17:34.274Z,44.87
2018-12-01T19:22:38.824Z,45.67
2018-12-01T19:27:43.401Z,45.20
2018-12-01T19:33:10.670Z,48.27
2018-12-01T19:38:38.845Z,40.33
2018-12-01T19:43:43.430Z,39.97
2018-12-01T19:48:47.970Z,38.13
2018-12-01T19:53:52.574Z,44.83
2018-12-01T19:58:57.126Z,42.33
2018-12-01T20:04:01.700Z,40.77
2018-12-01T20:09:07.639Z,42.43
2018-12-01T20:14:14.851Z,38.10
2018-12-01T20:19:19.471Z,38.37
2018-12-01T20:24:24.056Z,41.80
2018-12-01T20:29:29.288Z,34.67
2018-12-01T20:34:55.689Z,37.87
2018-12-01T20:40:00.276Z,35.27
2018-12-01T20:45:04.890Z,32.20
2018-12-01T20:50:17.513Z,32.90
2018-12-01T20:55:26.760Z,35.97
2018-12-01T21:00:31.342Z,31.97
2018-12-01T21:11:06.486Z,31.30
2018-12-01T21:16:11.085Z,27.57
2018-12-01T21:21:15.630Z,28.27
2018-12-01T21:26:20.138Z,27.30
2018-12-01T21:31:24.681Z,26.90
2018-12-01T21:36:29.838Z,27.53
2018-12-01T21:41:34.373Z,27.30
2018-12-01T21:46:38.896Z,26.17
2018-12-01T21:51:43.520Z,26.47
2018-12-01T21:57:06.729Z,26.90
2018-12-01T22:02:11.322Z,26.23
2018-12-01T22:07:15.868Z,26.63
2018-12-01T22:12:20.466Z,27.53
2018-12-01T22:17:25.206Z,32.00
2018-12-01T22:22:29.725Z,29.23
2018-12-01T22:27:34.317Z,26.93
2018-12-01T22:32:57.870Z,26.33
2018-12-01T22:38:02.491Z,26.57
2018-12-01T22:43:08.338Z,25.33
2018-12-01T22:48:31.908Z,25.97
2018-12-01T22:53:36.693Z,25.23
2018-12-01T22:58:41.256Z,26.07
2018-12-01T23:03:45.822Z,31.20
2018-12-01T23:09:09.462Z,24.57
2018-12-01T23:14:14.064Z,21.47
2018-12-01T23:19:19.179Z,21.80
2018-12-01T23:24:52.716Z,19.23
2018-12-01T23:29:57.589Z,19.73
2018-12-01T23:35:02.100Z,20.17
2018-12-01T23:40:08.958Z,20.97
2018-12-01T23:45:32.556Z,18.53
2018-12-01T23:50:37.759Z,19.63
2018-12-01T23:55:42.501Z,18.20
